createdAt,value
2022-11-23T00:01:40.216Z,1.27
2022-11-23T00:05:38.935Z,1.29
2022-11-23T00:09:56.714Z,1.29
2022-11-23T00:13:15.514Z,1.29
2022-11-23T00:17:14.093Z,1.28
2022-11-23T00:21:14.737Z,1.29
2022-11-23T00:25:13.537Z,1.28
2022-11-23T00:29:12.569Z,1.28
2022-11-23T00:33:11.594Z,1.29
2022-11-23T00:37:10.257Z,1.30
2022-11-23T00:41:10.674Z,1.29
2022-11-23T00:45:09.665Z,1.28
2022-11-23T00:49:08.770Z,1.29
2022-11-23T00:53:07.454Z,1.30
2022-11-23T00:57:06.423Z,1.30
2022-11-23T01:01:09.704Z,1.29
2022-11-23T01:05:09.039Z,1.29
2022-11-23T01:09:16.485Z,1.27
2022-11-23T01:13:15.763Z,1.27
2022-11-23T01:17:15.039Z,1.28
2022-11-23T01:21:14.083Z,1.30
2022-11-23T01:25:13.036Z,1.31
2022-11-23T01:29:12.147Z,1.30
2022-11-23T01:33:10.513Z,1.27
2022-11-23T01:37:09.395Z,1.25
2022-11-23T01:41:08.935Z,1.23
2022-11-23T01:45:26.430Z,1.22
2022-11-23T01:49:26.222Z,1.21
2022-11-23T01:53:27.052Z,1.20
2022-11-23T01:57:28.572Z,1.19
2022-11-23T02:01:27.494Z,1.18
2022-11-23T02:05:32.242Z,1.16
2022-11-23T02:09:33.728Z,1.14
2022-11-23T02:13:32.807Z,1.16
2022-11-23T02:17:33.837Z,1.19
2022-11-23T02:21:32.417Z,1.20
2022-11-23T02:25:40.443Z,1.17
2022-11-23T02:29:42.256Z,1.16
2022-11-23T02:33:41.257Z,1.14
2022-11-23T02:38:00.876Z,1.15
2022-11-23T02:41:17.689Z,1.17
2022-11-23T02:45:35.935Z,1.15
2022-11-23T02:49:34.985Z,1.13
2022-11-23T02:53:33.646Z,1.13
2022-11-23T02:57:32.234Z,1.10
2022-11-23T03:01:31.078Z,1.06
2022-11-23T03:05:30.627Z,1.05
2022-11-23T03:09:30.012Z,1.00
2022-11-23T03:13:29.047Z,0.98
2022-11-23T03:17:28.421Z,0.94
2022-11-23T03:21:27.408Z,1.00
2022-11-23T03:25:26.012Z,0.98
2022-11-23T03:29:26.981Z,1.01
2022-11-23T03:33:26.318Z,0.99
2022-11-23T03:37:25.613Z,0.97
2022-11-23T03:41:24.797Z,0.97
2022-11-23T03:45:25.685Z,0.99
2022-11-23T03:49:24.717Z,0.93
2022-11-23T03:53:25.239Z,0.91
2022-11-23T03:57:23.775Z,0.89
2022-11-23T04:01:22.855Z,0.83
2022-11-23T04:05:28.295Z,0.78
2022-11-23T04:09:45.696Z,0.73
2022-11-23T04:14:04.596Z,0.69
2022-11-23T04:18:03.961Z,0.67
2022-11-23T04:22:02.649Z,0.67
2022-11-23T04:26:07.061Z,0.65
2022-11-23T04:29:42.477Z,0.64
2022-11-23T04:33:41.854Z,0.64
2022-11-23T04:37:40.982Z,0.62
2022-11-23T04:41:41.077Z,0.62
2022-11-23T04:45:41.055Z,0.59
2022-11-23T04:49:46.490Z,0.57
2022-11-23T04:53:46.394Z,0.57
2022-11-23T04:57:45.903Z,0.54
2022-11-23T05:01:45.123Z,0.56
2022-11-23T05:06:07.556Z,0.60
2022-11-23T05:10:10.924Z,0.63
2022-11-23T05:14:10.138Z,0.67
2022-11-23T05:18:10.989Z,0.64
2022-11-23T05:22:10.015Z,0.61
2022-11-23T05:26:09.965Z,0.60
2022-11-23T05:30:10.614Z,0.62
2022-11-23T05:34:10.004Z,0.65
2022-11-23T05:38:15.557Z,0.63
2022-11-23T05:42:15.744Z,0.65
2022-11-23T05:46:14.427Z,0.64
2022-11-23T05:50:13.666Z,0.63
2022-11-23T05:54:29.067Z,0.60
2022-11-23T05:58:34.239Z,0.56
2022-11-23T06:02:38.135Z,0.54
2022-11-23T06:06:40.273Z,0.55
2022-11-23T06:10:39.005Z,0.55
2022-11-23T06:14:38.497Z,0.54
2022-11-23T06:18:40.162Z,0.48
2022-11-23T06:22:18.062Z,0.46
2022-11-23T06:26:26.385Z,0.44
2022-11-23T06:34:03.922Z,0.41
2022-11-23T06:38:04.929Z,0.38
2022-11-23T06:45:55.062Z,0.44
2022-11-23T06:49:29.281Z,0.43
2022-11-23T06:53:07.571Z,0.43
2022-11-23T06:56:43.316Z,0.42
2022-11-23T07:00:27.638Z,0.41
2022-11-23T07:07:31.172Z,0.39
2022-11-23T07:11:38.591Z,0.38
2022-11-23T07:15:15.194Z,0.38
2022-11-23T07:19:15.328Z,0.35
2022-11-23T07:23:17.749Z,0.33
2022-11-23T07:27:18.298Z,0.34
2022-11-23T07:31:37.802Z,0.35
2022-11-23T07:35:11.654Z,0.32
2022-11-23T07:39:48.766Z,0.30
2022-11-23T07:43:44.736Z,0.25
2022-11-23T07:47:49.399Z,0.24
2022-11-23T07:52:08.721Z,0.21
2022-11-23T07:55:39.810Z,0.24
2022-11-23T07:59:15.675Z,0.25
2022-11-23T08:03:31.335Z,0.29
2022-11-23T08:07:36.625Z,0.28
2022-11-23T08:16:12.611Z,0.25
2022-11-23T08:19:49.133Z,0.23
2022-11-23T08:23:48.589Z,0.25
2022-11-23T08:27:47.932Z,0.27
2022-11-23T08:31:47.210Z,0.25
2022-11-23T08:35:46.569Z,0.23
2022-11-23T08:39:50.124Z,0.24
2022-11-23T08:47:34.125Z,0.26
2022-11-23T08:51:37.371Z,0.26
2022-11-23T08:55:13.593Z,0.24
2022-11-23T08:59:18.629Z,0.23
2022-11-23T09:02:54.456Z,0.25
2022-11-23T09:10:11.541Z,0.32
2022-11-23T09:14:16.051Z,0.34
2022-11-23T09:18:15.217Z,0.35
2022-11-23T09:22:14.348Z,0.34
2022-11-23T09:26:13.235Z,0.33
2022-11-23T09:30:12.984Z,0.34
2022-11-23T09:34:15.311Z,0.38
2022-11-23T09:38:51.508Z,0.48
2022-11-23T09:43:11.054Z,0.69
2022-11-23T09:47:10.016Z,0.74
2022-11-23T09:51:14.885Z,0.63
2022-11-23T09:55:21.433Z,0.54
2022-11-23T09:59:43.003Z,0.47
2022-11-23T10:03:19.322Z,0.46
2022-11-23T10:07:46.372Z,0.47
2022-11-23T10:11:03.642Z,0.44
2022-11-23T10:15:26.290Z,0.44
2022-11-23T10:18:48.715Z,0.42
2022-11-23T10:23:00.823Z,0.40
2022-11-23T10:26:34.811Z,0.40
2022-11-23T10:30:38.700Z,0.43
2022-11-23T10:34:15.347Z,0.46
2022-11-23T10:42:42.495Z,0.47
2022-11-23T10:46:41.730Z,0.49
2022-11-23T10:50:41.478Z,0.54
2022-11-23T10:54:41.286Z,0.53
2022-11-23T10:58:44.864Z,0.51
2022-11-23T11:02:58.989Z,0.54
2022-11-23T11:07:10.722Z,0.54
2022-11-23T11:11:21.412Z,0.57
2022-11-23T11:15:20.434Z,0.53
2022-11-23T11:19:32.755Z,0.58
2022-11-23T11:23:32.431Z,0.66
2022-11-23T11:27:51.695Z,0.68
2022-11-23T11:31:55.354Z,0.71
2022-11-23T11:35:55.869Z,0.72
2022-11-23T11:39:57.549Z,0.69
2022-11-23T11:44:01.811Z,0.74
2022-11-23T11:48:04.911Z,0.73
2022-11-23T11:52:12.774Z,0.78
2022-11-23T11:56:30.128Z,0.80
2022-11-23T12:00:30.507Z,0.81
2022-11-23T12:04:32.691Z,0.80
2022-11-23T12:08:49.230Z,0.83
2022-11-23T12:12:52.583Z,0.82
2022-11-23T12:21:52.796Z,0.81
2022-11-23T12:26:13.211Z,0.74
2022-11-23T12:30:31.846Z,0.71
2022-11-23T12:34:31.329Z,0.70
2022-11-23T12:38:37.369Z,0.69
2022-11-23T12:42:42.627Z,0.73
2022-11-23T12:47:00.048Z,0.74
2022-11-23T12:50:58.948Z,0.75
2022-11-23T12:55:12.811Z,0.79
2022-11-23T12:59:35.898Z,0.76
2022-11-23T13:03:47.669Z,0.73
2022-11-23T13:07:55.668Z,0.70
2022-11-23T13:12:13.972Z,0.71
2022-11-23T13:16:32.233Z,0.76
2022-11-23T13:20:34.726Z,0.79
2022-11-23T13:24:35.815Z,0.80
2022-11-23T13:28:35.233Z,0.78
2022-11-23T13:32:40.383Z,0.76
2022-11-23T13:37:11.556Z,0.77
2022-11-23T13:41:02.924Z,0.82
2022-11-23T13:45:21.984Z,0.84
2022-11-23T13:49:39.180Z,0.81
2022-11-23T13:53:42.490Z,0.79
2022-11-23T13:57:44.411Z,0.77
2022-11-23T14:02:03.778Z,0.73
2022-11-23T14:05:39.701Z,0.70
2022-11-23T14:09:53.110Z,0.66
2022-11-23T14:13:54.748Z,0.60
2022-11-23T14:18:03.429Z,0.59
2022-11-23T14:22:29.204Z,0.59
2022-11-23T14:26:31.443Z,0.53
2022-11-23T14:30:39.368Z,0.54
2022-11-23T14:34:58.404Z,0.58
2022-11-23T14:39:07.969Z,0.62
2022-11-23T14:43:13.546Z,0.62
2022-11-23T14:47:12.795Z,0.63
2022-11-23T14:51:14.315Z,0.65
2022-11-23T14:55:19.848Z,0.66
2022-11-23T14:59:24.670Z,0.63
2022-11-23T15:07:54.785Z,0.65
2022-11-23T15:12:05.592Z,0.64
2022-11-23T15:16:05.830Z,0.65
2022-11-23T15:20:04.924Z,0.70
2022-11-23T15:24:03.530Z,0.71
2022-11-23T15:28:02.260Z,0.70
2022-11-23T15:32:32.092Z,0.67
2022-11-23T15:36:33.308Z,0.63
2022-11-23T15:40:35.654Z,0.61
2022-11-23T15:44:38.828Z,0.60
2022-11-23T15:48:38.305Z,0.61
2022-11-23T15:52:38.452Z,0.60
2022-11-23T15:56:38.668Z,0.65
2022-11-23T16:00:37.695Z,0.70
2022-11-23T16:04:37.939Z,0.71
2022-11-23T16:08:37.208Z,0.65
2022-11-23T16:12:47.846Z,0.62
2022-11-23T16:16:58.429Z,0.66
2022-11-23T16:20:59.153Z,0.65
2022-11-23T16:25:21.090Z,0.63
2022-11-23T16:29:25.432Z,0.66
2022-11-23T16:37:38.285Z,0.80
2022-11-23T16:45:51.647Z,0.74
2022-11-23T16:49:51.271Z,0.72
2022-11-23T16:58:14.471Z,0.68
2022-11-23T17:02:14.704Z,0.65
2022-11-23T17:06:17.965Z,0.65
2022-11-23T17:10:17.541Z,0.62
2022-11-23T17:14:19.178Z,0.60
2022-11-23T17:18:19.249Z,0.58
2022-11-23T17:22:21.552Z,0.60
2022-11-23T17:26:39.653Z,0.58
2022-11-23T17:30:38.341Z,0.52
2022-11-23T17:34:37.395Z,0.51
2022-11-23T17:38:38.571Z,0.49
2022-11-23T17:42:37.564Z,0.46
2022-11-23T17:46:36.439Z,0.46
2022-11-23T17:50:35.667Z,0.47
2022-11-23T17:54:48.791Z,0.50
2022-11-23T17:58:47.763Z,0.50
2022-11-23T18:02:47.244Z,0.49
2022-11-23T18:06:46.503Z,0.52
2022-11-23T18:10:45.490Z,0.51
2022-11-23T18:14:44.698Z,0.50
2022-11-23T18:18:43.843Z,0.49
2022-11-23T18:22:42.961Z,0.50
2022-11-23T18:26:41.806Z,0.54
2022-11-23T18:30:40.931Z,0.55
2022-11-23T18:34:40.131Z,0.53
2022-11-23T18:38:40.367Z,0.52
2022-11-23T18:42:39.312Z,0.53
2022-11-23T18:46:52.440Z,0.50
2022-11-23T18:50:51.868Z,0.47
2022-11-23T18:54:50.731Z,0.44
2022-11-23T18:58:50.210Z,0.44
2022-11-23T19:02:52.596Z,0.41
2022-11-23T19:06:51.554Z,0.37
2022-11-23T19:10:50.576Z,0.38
2022-11-23T19:14:50.265Z,0.40
2022-11-23T19:18:56.643Z,0.40
2022-11-23T19:22:55.896Z,0.42
2022-11-23T19:26:55.149Z,0.41
2022-11-23T19:30:54.598Z,0.38
2022-11-23T19:34:55.277Z,0.39
2022-11-23T19:38:55.950Z,0.38
2022-11-23T19:42:55.428Z,0.38
2022-11-23T19:46:55.072Z,0.36
2022-11-23T19:50:55.338Z,0.37
2022-11-23T19:54:54.563Z,0.37
2022-11-23T19:58:54.791Z,0.37
2022-11-23T20:02:54.215Z,0.40
2022-11-23T20:06:53.870Z,0.42
2022-11-23T20:10:53.064Z,0.44
2022-11-23T20:14:52.564Z,0.40
2022-11-23T20:19:10.161Z,0.37
2022-11-23T20:23:09.944Z,0.33
2022-11-23T20:27:09.803Z,0.32
2022-11-23T20:31:18.400Z,0.29
2022-11-23T20:35:19.159Z,0.27
2022-11-23T20:39:18.427Z,0.25
2022-11-23T20:43:17.387Z,0.22
2022-11-23T20:47:16.681Z,0.20
2022-11-23T20:51:15.816Z,0.17
2022-11-23T20:55:20.583Z,0.15
2022-11-23T20:59:20.810Z,0.12
2022-11-23T21:03:20.096Z,0.12
2022-11-23T21:07:19.433Z,0.11
2022-11-23T21:11:47.150Z,0.09
2022-11-23T21:15:46.662Z,0.06
2022-11-23T21:19:45.537Z,0.02
2022-11-23T21:23:48.220Z,0.01
2022-11-23T21:27:49.903Z,-0.01
2022-11-23T21:31:49.311Z,-0.02
2022-11-23T21:35:48.149Z,-0.05
2022-11-23T21:39:52.680Z,-0.05
2022-11-23T21:43:54.526Z,-0.03
2022-11-23T21:47:54.944Z,-0.00
2022-11-23T21:51:54.043Z,0.02
2022-11-23T21:55:53.303Z,0.06
2022-11-23T21:59:52.183Z,0.11
2022-11-23T22:12:29.478Z,0.18
2022-11-23T22:16:29.698Z,0.16
2022-11-23T22:20:29.618Z,0.13
2022-11-23T22:24:28.899Z,0.11
2022-11-23T22:28:32.137Z,0.09
2022-11-23T22:32:31.873Z,0.08
2022-11-23T22:36:32.139Z,0.07
2022-11-23T22:40:33.197Z,0.07
2022-11-23T22:44:32.338Z,0.06
2022-11-23T22:48:32.140Z,0.03
2022-11-23T22:52:31.349Z,0.03
2022-11-23T22:56:31.510Z,0.03
2022-11-23T23:00:30.921Z,0.04
2022-11-23T23:04:30.942Z,0.04
2022-11-23T23:08:31.064Z,0.04
2022-11-23T23:12:30.086Z,-0.00
2022-11-23T23:16:30.380Z,-0.00
2022-11-23T23:20:29.393Z,0.01
2022-11-23T23:24:28.411Z,0.02
2022-11-23T23:28:27.459Z,-0.01
2022-11-23T23:32:29.351Z,0.01
2022-11-23T23:36:30.546Z,-0.01
2022-11-23T23:40:06.138Z,-0.02
2022-11-23T23:44:05.839Z,-0.05
2022-11-23T23:48:05.232Z,-0.05
2022-11-23T23:52:05.128Z,-0.01
2022-11-23T23:56:08.540Z,-0.03
